Latest Coastal Weather Observations for Tewantin

IDQ60701

Issued at 9:15 pm EST Saturday 25 October 2014 (issued every 10 minutes, with the page automatically refreshed every 10 minutes)

About coastal observations | Map of coastal stations | Coastal observations for QLD | Marine services | Other Formats
Station Details ID: 040908 Name: TEWANTIN RSL PARK Lat: -26.39 Lon: 153.04 Height: 6.4 m
Data from the previous 72 hours. | See also: Recent months at Tewantin
Date/Time
EST
Temp

°C
Wind Pressure Rain
since 9am
mm
Weather Cloud Vis
km
Sea
Height
m
Swell
Dir
 
Speed
knots
Gust
knots
hPa Trend Height
m
Period
s
Dir
25/09:00pm 21.3 NNW 8 12 1017.7 - 0.0 - - - - - - -
25/08:30pm 21.8 NNW 9 15 1017.8 - 0.0 - - - - - - -
25/08:00pm 22.0 N 8 12 1017.5 - 0.0 - - - - - - -
25/07:30pm 22.3 N 9 13 1017.2 - 0.0 - - - - - - -
25/07:00pm 22.3 N 8 12 1016.8 - 0.0 - - - - - - -
25/06:30pm 22.8 N 9 12 1016.4 - 0.0 - - - - - - -
25/06:00pm 22.7 N 8 11 1015.9 - 0.0 - - - - - - -
25/05:30pm 23.1 N 10 15 1015.8 - 0.0 - - - - - - -
25/05:00pm 23.3 N 12 17 1015.5 - 0.0 - - - - - - -
25/04:30pm 23.5 NNE 14 20 1015.5 - 0.0 - - - - - - -
25/04:00pm 23.6 NNE 16 23 1015.7 - 0.0 - - - - - - -
25/03:30pm 23.9 NNE 14 22 1016.0 - 0.0 - - - - - - -
25/03:00pm 24.2 NNE 15 23 1016.0 - 0.0 - - - - - - -
25/02:30pm 24.0 NNE 14 22 1016.3 - 0.0 - - - - - - -
25/02:00pm 23.7 NNE 16 22 1016.8 - 0.0 - - - - - - -
25/01:45pm 23.9 NNE 15 25 1017.0 - 0.0 - - - - - - -
25/01:30pm 24.0 NNE 14 19 1017.1 - 0.0 - - - - - - -
25/01:00pm 24.0 NNE 15 20 1017.5 - 0.0 - - - - - - -
25/12:30pm 24.2 NNE 14 19 1018.0 - 0.0 - - - - - - -
25/12:00pm 24.5 NNE 13 17 1018.5 - 0.0 - - - - - - -
25/11:30am 25.0 NNE 11 14 1019.0 - 0.0 - - - - - - -
25/11:00am 25.9 N 8 13 1019.5 - 0.0 - - - - - - -
25/10:30am 25.1 N 8 14 1020.1 - 0.0 - - - - - - -
25/10:00am 24.5 N 7 11 1020.6 - 0.0 - - - - - - -
25/09:30am 24.2 N 7 11 1021.1 - 0.0 - - - - - - -
25/09:00am 23.4 N 8 11 1021.5 - 0.0 - - - - - - -
25/08:30am 23.2 NNW 7 10 1021.7 - 0.0 - - - - - - -
25/08:00am 21.9 NNW 7 12 1021.7 - 0.0 - - - - - - -
25/07:30am 20.9 NNW 4 7 1021.7 - 0.0 - - - - - - -
25/07:00am 19.8 NW 4 7 1021.5 - 0.0 - - - - - - -
25/06:30am 18.4 NW 4 6 1021.2 - 0.0 - - - - - - -
25/06:00am 17.0 NW 2 4 1021.1 - 0.0 - - - - - - -
25/05:30am 15.5 CALM 0 0 1020.7 - 0.0 - - - - - - -
25/05:00am 15.1 CALM 0 0 1020.5 - 0.0 - - - - - - -
25/04:30am 15.3 CALM 0 3 1020.2 - 0.0 - - - - - - -
25/04:00am 15.7 CALM 0 0 1019.9 - 0.0 - - - - - - -
25/03:30am 16.1 NW 3 5 1019.3 - 0.0 - - - - - - -
25/03:00am 16.2 NW 5 7 1019.1 - 0.0 - - - - - - -
25/02:30am 16.1 NW 3 5 1019.3 - 0.0 - - - - - - -
25/02:00am 15.8 N 2 3 1019.5 - 0.0 - - - - - - -
25/01:30am 16.0 CALM 0 0 1019.9 - 0.0 - - - - - - -
25/01:00am 16.3 CALM 0 0 1020.2 - 0.0 - - - - - - -
25/12:30am 16.5 CALM 0 0 1020.7 - 0.0 - - - - - - -
25/12:00am 16.7 WSW 0 0 1021.4 - 0.0 - - - - - - -
 
Date/Time
EST
Temp

°C
Wind Pressure Rain
since 9am
mm
Weather Cloud Vis
km
Sea
Height
m
Swell
Dir
 
Speed
knots
Gust
knots
hPa Trend Height
m
Period
s
Dir
24/11:30pm 17.0 CALM 0 0 1021.8 - 0.0 - - - - - - -
24/11:00pm 17.1 CALM 0 1 1021.9 - 0.0 - - - - - - -
24/10:30pm 17.2 CALM 0 3 1022.2 - 0.0 - - - - - - -
24/10:00pm 18.2 W 3 5 1022.3 - 0.0 - - - - - - -
24/09:30pm 18.0 NW 2 4 1022.3 - 0.0 - - - - - - -
24/09:00pm 18.2 WNW 1 3 1022.7 - 0.0 - - - - - - -
24/08:30pm 18.8 NW 3 4 1022.5 - 0.0 - - - - - - -
24/08:00pm 20.1 N 4 5 1022.4 - 0.0 - - - - - - -
24/07:30pm 20.6 N 5 9 1022.1 - 0.0 - - - - - - -
24/07:00pm 20.6 N 6 8 1021.7 - 0.0 - - - - - - -
24/06:30pm 20.7 N 6 8 1021.4 - 0.0 - - - - - - -
24/06:00pm 21.1 NNE 7 10 1021.2 - 0.0 - - - - - - -
24/05:30pm 21.5 NNE 7 11 1021.0 - 0.0 - - - - - - -
24/05:00pm 21.9 NNE 9 14 1020.7 - 0.0 - - - - - - -
24/04:30pm 22.3 NNE 9 14 1020.5 - 0.0 - - - - - - -
24/04:00pm 22.6 NE 9 13 1020.2 - 0.0 - - - - - - -
24/03:30pm 22.8 NNE 10 16 1020.1 - 0.0 - - - - - - -
24/03:00pm 22.6 ENE 10 16 1020.2 - 0.0 - - - - - - -
24/02:30pm 22.8 NE 10 17 1020.2 - 0.0 - - - - - - -
24/02:00pm 23.1 NNE 10 15 1020.4 - 0.0 - - - - - - -
24/01:30pm 23.5 NE 10 14 1020.6 - 0.0 - - - - - - -
24/01:00pm 23.6 NE 9 15 1021.0 - 0.0 - - - - - - -
24/12:30pm 23.6 NE 9 16 1021.3 - 0.0 - - - - - - -
24/12:00pm 23.5 NNE 9 13 1021.7 - 0.0 - - - - - - -
24/11:30am 23.8 NE 8 12 1021.9 - 0.0 - - - - - - -
24/11:00am 23.6 NNE 7 11 1022.1 - 0.0 - - - - - - -
24/10:30am 23.4 NNE 6 10 1022.4 - 0.0 - - - - - - -
24/10:00am 23.2 NE 4 8 1022.8 - 0.0 - - - - - - -
24/09:30am 22.9 SE 2 4 1023.1 - 0.0 - - - - - - -
24/09:00am 22.1 N 3 6 1023.2 - 0.0 - - - - - - -
24/08:30am 21.9 CALM 0 0 1023.2 - 0.0 - - - - - - -
24/08:00am 21.5 NNE 1 4 1023.0 - 0.0 - - - - - - -
24/07:30am 21.5 CALM 0 3 1022.6 - 0.0 - - - - - - -
24/07:00am 20.6 CALM 0 3 1022.4 - 0.0 - - - - - - -
24/06:30am 18.6 CALM 0 0 1022.3 - 0.0 - - - - - - -
24/06:00am 17.6 CALM 0 0 1022.1 - 0.0 - - - - - - -
24/05:30am 16.3 CALM 0 0 1021.9 - 0.0 - - - - - - -
24/05:00am 15.8 CALM 0 0 1021.7 - 0.0 - - - - - - -
24/04:30am 15.2 CALM 0 0 1021.1 - 0.0 - - - - - - -
24/04:00am 15.4 CALM 0 0 1020.9 - 0.0 - - - - - - -
24/03:30am 15.2 CALM 0 0 1020.6 - 0.0 - - - - - - -
24/03:00am 15.4 CALM 0 0 1020.7 - 0.0 - - - - - - -
24/02:30am 15.2 CALM 0 0 1020.8 - 0.0 - - - - - - -
24/02:00am 15.5 N 1 3 1020.8 - 0.0 - - - - - - -
24/01:30am 15.8 CALM 0 0 1021.0 - 0.0 - - - - - - -
24/01:00am 16.0 CALM 0 0 1021.0 - 0.0 - - - - - - -
24/12:30am 16.2 CALM 0 3 1021.6 - 0.0 - - - - - - -
24/12:00am 16.1 CALM 0 0 1021.5 - 0.0 - - - - - - -
 
Date/Time
EST
Temp

°C
Wind Pressure Rain
since 9am
mm
Weather Cloud Vis
km
Sea
Height
m
Swell
Dir
 
Speed
knots
Gust
knots
hPa Trend Height
m
Period
s
Dir
23/11:30pm 16.5 CALM 0 0 1021.7 - 0.0 - - - - - - -
23/11:00pm 16.5 SW 2 4 1022.0 - 0.0 - - - - - - -
23/10:30pm 17.1 CALM 0 0 1021.9 - 0.0 - - - - - - -
23/10:00pm 17.5 CALM 0 3 1021.9 - 0.0 - - - - - - -
23/09:30pm 17.9 WSW 3 4 1021.6 - 0.0 - - - - - - -
23/09:00pm 19.3 N 3 4 1021.4 - 0.0 - - - - - - -
23/08:30pm 19.4 N 4 6 1021.2 - 0.0 - - - - - - -
23/08:00pm 19.3 N 4 6 1020.8 - 0.0 - - - - - - -
23/07:30pm 19.4 NNE 4 5 1020.6 - 0.0 - - - - - - -
23/07:00pm 19.6 NE 3 4 1020.4 - 0.0 - - - - - - -
23/06:30pm 20.1 NNE 3 6 1019.9 - 0.0 - - - - - - -
23/06:00pm 20.6 NNE 6 9 1019.3 - 0.0 - - - - - - -
23/05:30pm 20.9 NE 6 10 1019.1 - 0.0 - - - - - - -
23/05:00pm 21.3 NE 7 11 1018.9 - 0.0 - - - - - - -
23/04:30pm 21.7 NE 9 12 1018.6 - 0.0 - - - - - - -
23/04:00pm 22.0 NE 8 12 1018.4 - 0.0 - - - - - - -
23/03:30pm 22.3 NE 7 11 1018.4 - 0.0 - - - - - - -
23/03:00pm 22.3 NE 8 13 1018.3 - 0.0 - - - - - - -
23/02:30pm 23.1 NE 8 14 1018.6 - 0.0 - - - - - - -
23/02:00pm 23.0 NE 9 13 1018.7 - 0.0 - - - - - - -
23/01:30pm 23.3 NE 8 11 1019.1 - 0.0 - - - - - - -
23/01:00pm 22.3 NNE 9 12 1019.6 - 0.0 - - - - - - -
23/12:30pm 23.6 NE 7 11 1020.0 - 0.0 - - - - - - -
23/12:00pm 22.9 NNE 8 12 1020.6 - 0.0 - - - - - - -
23/11:30am 22.7 NE 7 12 1021.2 - 0.0 - - - - - - -
23/11:00am 22.8 ESE 6 9 1021.6 - 0.0 - - - - - - -
23/10:30am 23.0 E 4 9 1021.8 - 0.0 - - - - - - -
23/10:00am 22.8 E 5 8 1022.2 - 0.0 - - - - - - -
23/09:30am 22.5 SE 6 9 1022.3 - 0.0 - - - - - - -
23/09:00am 21.5 ENE 3 6 1022.5 - - - - - - - - -
23/08:30am 22.3 ESE 5 8 1022.4 - - - - - - - - -
23/08:00am 21.7 S 4 6 1022.5 - - - - - - - - -
23/07:30am 20.9 S 4 6 1022.4 - - - - - - - - -
23/07:00am 18.9 SSW 1 5 1022.3 - - - - - - - - -
23/06:30am 15.8 SW 1 4 1022.2 - - - - - - - - -
23/06:00am 15.0 CALM 0 0 1022.1 - - - - - - - - -
23/05:30am 14.3 CALM 0 3 1022.0 - - - - - - - - -
23/05:00am 14.4 CALM 0 0 1021.8 - - - - - - - - -
23/04:30am 15.1 CALM 0 0 1021.7 - - - - - - - - -
23/04:00am 15.5 CALM 0 0 1021.5 - - - - - - - - -
23/03:30am 16.0 SSW 3 5 1021.3 - - - - - - - - -
23/03:00am 16.3 SW 1 4 1021.3 - 0.0 - - - - - - -
23/02:30am 16.2 SSW 3 4 1021.2 - - - - - - - - -
23/02:00am 16.4 SSW 3 5 1021.3 - - - - - - - - -
23/01:30am 16.6 SW 4 4 1021.5 - - - - - - - - -
23/01:00am 17.3 SSW 3 4 1021.8 - - - - - - - - -
23/12:30am 18.3 S 3 6 1022.2 - - - - - - - - -
23/12:00am 19.2 E 3 6 1022.5 - - - - - - - - -
 
Date/Time
EST
Temp

°C
Wind Pressure Rain
since 9am
mm
Weather Cloud Vis
km
Sea
Height
m
Swell
Dir
 
Speed
knots
Gust
knots
hPa Trend Height
m
Period
s
Dir
22/11:30pm 19.5 E 5 7 1022.8 - - - - - - - - -
22/11:00pm 19.8 ESE 4 7 1023.1 - - - - - - - - -
22/10:30pm 19.7 ESE 6 10 1023.3 - - - - - - - - -
22/10:00pm 19.8 E 7 11 1023.2 - - - - - - - - -
22/09:30pm 19.7 ESE 7 10 1023.4 - - - - - - - - -

Other Formats:

Comma delimited format used in spreadsheet applications
http://www.bom.gov.au/fwo/IDQ60701/IDQ60701.94570.axf

JavaScript Object Notation format (JSON) in row-major order
http://www.bom.gov.au/fwo/IDQ60701/IDQ60701.94570.json